Time;durP1;ratioP1;P1;durP2;ratioP2;P2;SDS_P1;SDS_P2;PMS_P1;PMS_P2;Temp;Humidity;BMP_temperature;BMP_pressure;BME280_temperature;BME280_humidity;BME280_pressure;Samples;Min_cycle;Max_cycle;Signal;HPM_P1;HPM_P2
2022/03/28 00:01:15;;;;;;;18.17;7.90;;;;;;;6.54;87.64;97103.06;5106487;28;20020;-75
2022/03/28 00:03:41;;;;;;;14.60;8.20;;;;;;;6.44;87.40;97096.81;5110685;28;20082;-75
2022/03/28 00:06:10;;;;;;;16.37;8.27;;;;;;;6.38;88.62;97105.97;5104050;28;20078;-75
2022/03/28 00:08:37;;;;;;;17.77;9.97;;;;;;;6.42;88.94;97102.19;5092359;28;20036;-75
2022/03/28 00:11:06;;;;;;;15.40;9.20;;;;;;;6.30;88.48;97090.84;5114286;28;20031;-75
2022/03/28 00:13:35;;;;;;;17.30;9.10;;;;;;;6.20;89.71;97095.06;5114628;28;20028;-75
2022/03/28 00:16:02;;;;;;;20.70;9.60;;;;;;;6.12;90.65;97093.00;5098275;28;20035;-75
2022/03/28 00:18:28;;;;;;;24.40;10.47;;;;;;;6.02;90.77;97088.56;5109882;28;20668;-75
2022/03/28 00:20:55;;;;;;;15.03;8.27;;;;;;;6.02;92.38;97086.78;5108900;28;20031;-75
2022/03/28 00:23:22;;;;;;;15.93;8.53;;;;;;;6.00;91.44;97082.59;5113625;28;20027;-75
2022/03/28 00:25:48;;;;;;;14.50;8.53;;;;;;;5.99;91.86;97084.38;5114800;28;20096;-75
2022/03/28 00:28:14;;;;;;;16.73;10.17;;;;;;;5.90;93.65;97078.03;5104462;28;20031;-75
2022/03/28 00:30:41;;;;;;;21.07;10.50;;;;;;;5.95;96.53;97077.72;5111883;28;20633;-75
2022/03/28 00:33:07;;;;;;;15.00;8.80;;;;;;;5.90;96.77;97079.78;5094393;28;20787;-76
2022/03/28 00:35:33;;;;;;;17.67;9.90;;;;;;;5.88;96.83;97079.91;5109058;28;20028;-75
2022/03/28 00:37:59;;;;;;;15.53;9.83;;;;;;;5.88;97.12;97072.06;5105417;28;20318;-75
2022/03/28 00:40:27;;;;;;;17.30;8.73;;;;;;;5.78;97.82;97078.91;5096152;28;20039;-75
2022/03/28 00:42:56;;;;;;;20.87;9.30;;;;;;;5.74;98.19;97077.44;5105375;28;20133;-75
2022/03/28 00:45:21;;;;;;;21.80;10.40;;;;;;;5.73;99.50;97075.75;5104327;28;20473;-75
2022/03/28 00:47:47;;;;;;;15.37;8.93;;;;;;;5.64;99.96;97072.03;5100012;28;20590;-75
2022/03/28 00:50:13;;;;;;;19.17;10.47;;;;;;;5.62;100.00;97073.09;5113807;28;20019;-75
2022/03/28 00:52:39;;;;;;;17.97;9.23;;;;;;;5.57;100.00;97062.16;5113087;27;20038;-75
2022/03/28 00:55:07;;;;;;;20.83;10.00;;;;;;;5.65;100.00;97062.44;5110071;28;20043;-75
2022/03/28 00:57:33;;;;;;;19.83;10.30;;;;;;;5.66;100.00;97053.66;5114462;28;20491;-75
2022/03/28 01:00:00;;;;;;;18.10;9.83;;;;;;;5.71;100.00;97062.00;5115040;27;20020;-75
2022/03/28 01:02:26;;;;;;;16.53;9.70;;;;;;;5.54;100.00;97054.53;5109769;28;20035;-75
2022/03/28 01:04:52;;;;;;;17.90;10.40;;;;;;;5.58;100.00;97051.59;5119975;27;20088;-75
2022/03/28 01:07:18;;;;;;;19.10;9.77;;;;;;;5.62;100.00;97052.22;5119977;28;20079;-75
2022/03/28 01:09:44;;;;;;;16.13;9.63;;;;;;;5.67;100.00;97056.16;5113812;28;20089;-75
2022/03/28 01:12:11;;;;;;;17.83;9.47;;;;;;;5.64;100.00;97050.34;5109625;28;20024;-76
2022/03/28 01:14:37;;;;;;;15.50;9.30;;;;;;;5.68;100.00;97051.78;5104143;28;20031;-75
2022/03/28 01:19:52;;;;;;;18.40;10.67;;;;;;;5.62;100.00;97052.22;5105361;28;20108;-75
2022/03/28 01:22:17;;;;;;;17.77;12.10;;;;;;;5.60;100.00;97051.47;5113445;28;20039;-75
2022/03/28 01:24:44;;;;;;;19.37;10.17;;;;;;;5.61;100.00;97050.56;5113615;28;20453;-75
2022/03/28 01:27:10;;;;;;;16.50;11.40;;;;;;;5.55;100.00;97045.75;5113525;28;20051;-75
2022/03/28 01:29:35;;;;;;;18.53;12.07;;;;;;;5.58;100.00;97048.16;5105339;28;20447;-75
2022/03/28 01:32:02;;;;;;;17.53;11.47;;;;;;;5.65;100.00;97042.38;5096808;28;20042;-75
2022/03/28 01:34:28;;;;;;;20.13;11.10;;;;;;;5.65;100.00;97042.38;5110463;28;20051;-75
2022/03/28 01:36:54;;;;;;;18.00;10.73;;;;;;;5.48;100.00;97036.69;5112030;28;20485;-75
2022/03/28 01:39:20;;;;;;;22.30;10.77;;;;;;;5.49;100.00;97043.59;5111384;28;20737;-75
2022/03/28 01:41:46;;;;;;;17.20;10.73;;;;;;;5.47;100.00;97038.50;5110263;28;20765;-75
2022/03/28 01:44:13;;;;;;;19.17;11.20;;;;;;;5.42;100.00;97038.78;5115916;27;20039;-74
2022/03/28 01:46:44;;;;;;;18.77;11.10;;;;;;;5.51;100.00;97036.50;5110096;28;20016;-75
2022/03/28 01:49:11;;;;;;;17.87;9.97;;;;;;;5.56;100.00;97042.19;5109059;28;20028;-75
2022/03/28 01:51:36;;;;;;;21.40;11.33;;;;;;;5.58;100.00;97040.34;5115214;28;20034;-75
2022/03/28 01:54:02;;;;;;;16.83;10.13;;;;;;;5.64;100.00;97029.47;5111861;28;20031;-75
2022/03/28 01:56:28;;;;;;;22.20;10.87;;;;;;;5.73;100.00;97031.41;5112218;28;20630;-75
2022/03/28 01:58:54;;;;;;;19.53;10.93;;;;;;;5.70;100.00;97023.81;5108501;27;20778;-74
2022/03/28 02:01:21;;;;;;;19.90;10.63;;;;;;;5.72;100.00;97032.34;5093949;28;20556;-75
2022/03/28 02:03:47;;;;;;;18.03;10.53;;;;;;;5.72;100.00;97024.53;5112009;28;20031;-75
2022/03/28 02:06:12;;;;;;;18.13;10.50;;;;;;;5.73;100.00;97023.56;5110628;28;20080;-75
2022/03/28 02:08:38;;;;;;;18.47;10.43;;;;;;;5.80;100.00;97029.19;5102890;28;20409;-74
2022/03/28 02:11:03;;;;;;;18.53;10.70;;;;;;;5.76;100.00;97023.34;5102564;28;20523;-75
2022/03/28 02:13:29;;;;;;;19.90;10.80;;;;;;;5.73;100.00;97023.56;5095803;28;20119;-75
2022/03/28 02:15:55;;;;;;;18.77;11.10;;;;;;;5.72;100.00;97015.84;5094491;28;20036;-75
2022/03/28 02:18:21;;;;;;;20.40;10.83;;;;;;;5.65;100.00;97020.69;5110885;28;20031;-75
2022/03/28 02:20:46;;;;;;;22.10;11.50;;;;;;;5.53;100.00;97016.31;5103155;28;20023;-75
2022/03/28 02:23:12;;;;;;;21.80;12.03;;;;;;;5.44;100.00;97013.44;5109712;27;20035;-75
2022/03/28 02:25:39;;;;;;;23.70;11.47;;;;;;;5.37;100.00;97012.22;5115635;27;20032;-74
2022/03/28 02:28:05;;;;;;;21.77;11.53;;;;;;;5.36;100.00;97014.91;5108889;28;20030;-74
2022/03/28 02:30:31;;;;;;;18.40;10.53;;;;;;;5.37;100.00;97017.44;5108542;28;20572;-75
2022/03/28 02:32:58;;;;;;;17.27;9.97;;;;;;;5.25;100.00;97017.44;5106242;28;20111;-75
2022/03/28 02:35:24;;;;;;;18.53;11.63;;;;;;;5.16;100.00;97008.47;5109899;28;20031;-75
2022/03/28 02:37:50;;;;;;;20.50;10.83;;;;;;;5.15;100.00;97012.88;5093533;28;20023;-75
2022/03/28 02:40:16;;;;;;;16.20;10.37;;;;;;;5.15;100.00;97018.06;5108766;27;20103;-75
2022/03/28 02:42:42;;;;;;;15.80;9.93;;;;;;;5.08;100.00;97010.78;5106989;28;20030;-75
2022/03/28 02:45:09;;;;;;;16.93;10.30;;;;;;;4.98;100.00;97008.00;5103619;28;20107;-75
2022/03/28 02:47:35;;;;;;;15.03;10.27;;;;;;;4.94;100.00;97009.97;5092924;28;21028;-75
2022/03/28 02:50:03;;;;;;;18.20;10.77;;;;;;;4.82;100.00;97002.16;5109077;28;20019;-74
2022/03/28 02:52:28;;;;;;;15.83;10.03;;;;;;;4.77;100.00;97006.88;5110206;28;20085;-75
2022/03/28 02:54:55;;;;;;;16.93;10.57;;;;;;;4.79;100.00;97007.56;5108329;28;20028;-75
2022/03/28 02:57:21;;;;;;;22.03;11.00;;;;;;;4.78;100.00;97005.91;5113466;28;20444;-75
2022/03/28 02:59:46;;;;;;;17.20;10.23;;;;;;;4.75;100.00;97009.56;5109663;27;20084;-75
2022/03/28 03:02:13;;;;;;;18.03;10.57;;;;;;;4.61;100.00;96994.03;5104321;28;20035;-75
2022/03/28 03:04:38;;;;;;;16.67;10.70;;;;;;;4.63;100.00;96999.97;5112070;28;20365;-75
2022/03/28 03:07:04;;;;;;;21.17;11.27;;;;;;;4.54;100.00;96988.41;5089956;28;20032;-75
2022/03/28 03:09:30;;;;;;;21.63;11.47;;;;;;;4.64;100.00;96988.63;5110703;28;20065;-75
2022/03/28 03:11:56;;;;;;;20.33;11.13;;;;;;;4.69;100.00;96989.97;5097969;28;20489;-75
2022/03/28 03:14:23;;;;;;;24.47;13.03;;;;;;;4.72;100.00;96989.75;5102088;28;20027;-74
2022/03/28 03:16:50;;;;;;;20.93;12.63;;;;;;;4.69;100.00;96983.91;5092839;28;20919;-75
2022/03/28 03:19:15;;;;;;;24.13;13.40;;;;;;;4.69;100.00;96981.31;5093264;28;20464;-74
2022/03/28 03:21:41;;;;;;;21.43;11.70;;;;;;;4.67;100.00;96980.59;5100972;28;20822;-74
2022/03/28 03:24:07;;;;;;;23.33;12.67;;;;;;;4.68;100.00;96982.25;5109796;28;20057;-74
2022/03/28 03:26:33;;;;;;;18.30;12.03;;;;;;;4.60;100.00;96982.78;5092115;28;20028;-75
2022/03/28 03:28:59;;;;;;;22.47;12.73;;;;;;;4.59;100.00;96977.66;5107898;28;20047;-74
2022/03/28 03:31:25;;;;;;;22.17;12.73;;;;;;;4.54;100.00;96975.38;5108535;28;20118;-74
2022/03/28 03:33:51;;;;;;;20.93;11.93;;;;;;;4.53;100.00;96973.72;5109745;28;20035;-75
2022/03/28 03:36:17;;;;;;;20.87;11.27;;;;;;;4.50;100.00;96973.94;5111113;28;20900;-75
2022/03/28 03:38:43;;;;;;;22.27;11.97;;;;;;;4.45;100.00;96971.59;5103225;28;20066;-75
2022/03/28 03:41:08;;;;;;;19.77;12.53;;;;;;;4.45;100.00;96974.22;5110643;28;20019;-75
2022/03/28 03:43:34;;;;;;;22.50;13.03;;;;;;;4.36;100.00;96974.84;5102113;28;20103;-75
2022/03/28 03:46:00;;;;;;;25.70;12.83;;;;;;;4.39;100.00;96977.25;5112437;28;20024;-75
2022/03/28 03:48:27;;;;;;;18.93;11.93;;;;;;;4.36;100.00;96967.03;5114467;28;20076;-75
2022/03/28 03:50:53;;;;;;;20.33;11.63;;;;;;;4.28;100.00;96974.50;5103145;28;20124;-75
2022/03/28 03:53:20;;;;;;;22.90;12.47;;;;;;;4.12;100.00;96968.66;5110663;28;20544;-74
2022/03/28 03:55:47;;;;;;;26.63;13.23;;;;;;;4.11;100.00;96969.59;5113325;28;20471;-75
2022/03/28 03:58:13;;;;;;;20.07;12.63;;;;;;;4.07;100.00;96968.13;5106430;28;20485;-75
2022/03/28 04:00:40;;;;;;;25.70;13.17;;;;;;;4.08;100.00;96972.41;5116813;28;20811;-74
2022/03/28 04:03:06;;;;;;;22.03;12.37;;;;;;;4.00;100.00;96972.91;5115109;28;20477;-75
2022/03/28 04:05:32;;;;;;;25.13;13.77;;;;;;;4.00;100.00;96968.53;5113953;28;20527;-75
2022/03/28 04:07:59;;;;;;;20.50;12.13;;;;;;;4.05;100.00;96970.00;5106523;28;20019;-74
2022/03/28 04:10:26;;;;;;;23.37;12.47;;;;;;;3.82;100.00;96963.69;5114881;27;20476;-75
2022/03/28 04:12:52;;;;;;;21.73;12.30;;;;;;;3.75;100.00;96971.06;5114623;28;20445;-74
2022/03/28 04:15:18;;;;;;;23.27;12.37;;;;;;;3.77;100.00;96969.19;5111346;27;20469;-74
2022/03/28 04:17:45;;;;;;;21.57;11.97;;;;;;;3.71;100.00;96973.03;5103778;28;21378;-75
2022/03/28 04:20:13;;;;;;;19.90;12.07;;;;;;;3.75;100.00;96966.69;5106508;28;20055;-74
2022/03/28 04:22:40;;;;;;;24.13;12.00;;;;;;;3.81;100.00;96968.06;5114285;28;20548;-74
2022/03/28 04:25:08;;;;;;;28.60;11.70;;;;;;;3.77;100.00;96967.44;5116228;28;20460;-75
2022/03/28 04:27:35;;;;;;;25.37;13.10;;;;;;;3.66;100.00;96961.25;5097014;28;20458;-75
2022/03/28 04:30:07;;;;;;;23.30;13.00;;;;;;;3.63;100.00;96966.66;5115040;28;20445;-75
2022/03/28 04:32:34;;;;;;;23.43;12.70;;;;;;;3.64;100.00;96958.75;5099658;28;20465;-74
2022/03/28 04:35:00;;;;;;;22.57;12.60;;;;;;;3.62;100.00;96955.44;5123596;27;20452;-74
2022/03/28 04:37:27;;;;;;;19.90;12.03;;;;;;;3.65;100.00;96955.19;5114188;28;20832;-74
2022/03/28 04:39:52;;;;;;;26.07;12.33;;;;;;;3.51;100.00;96961.28;5109313;28;20496;-75
2022/03/28 04:42:18;;;;;;;21.53;11.73;;;;;;;3.51;100.00;96960.47;5113811;28;20778;-75
2022/03/28 04:44:44;;;;;;;20.60;11.20;;;;;;;3.54;100.00;96953.28;5113347;28;20035;-75
2022/03/28 04:47:09;;;;;;;21.43;12.37;;;;;;;3.57;100.00;96962.69;5105496;28;20123;-74
2022/03/28 04:49:35;;;;;;;26.17;12.13;;;;;;;3.55;100.00;96956.72;5113377;28;20127;-74
2022/03/28 04:52:01;;;;;;;21.60;12.57;;;;;;;3.44;100.00;96962.63;5109772;28;20442;-75
2022/03/28 04:54:27;;;;;;;22.90;13.03;;;;;;;3.42;100.00;96958.44;5112620;28;20036;-74
2022/03/28 04:56:52;;;;;;;20.50;10.97;;;;;;;3.35;100.00;96957.16;5113763;28;20012;-75
2022/03/28 04:59:18;;;;;;;24.37;12.90;;;;;;;3.33;100.00;96954.66;5096772;27;20042;-74
2022/03/28 05:01:43;;;;;;;21.40;11.63;;;;;;;3.37;100.00;96955.31;5107647;28;20023;-75
2022/03/28 05:04:09;;;;;;;23.63;13.20;;;;;;;3.40;100.00;96955.13;5102596;28;20028;-75
2022/03/28 05:06:35;;;;;;;21.17;11.77;;;;;;;3.41;100.00;96944.59;5105304;27;20535;-74
2022/03/28 05:09:01;;;;;;;21.73;12.47;;;;;;;3.51;100.00;96952.66;5095954;28;20059;-75
2022/03/28 05:11:28;;;;;;;22.63;11.90;;;;;;;3.66;100.00;96943.06;5110033;28;20035;-74
2022/03/28 05:13:53;;;;;;;22.67;12.23;;;;;;;3.74;100.00;96952.00;5104927;28;20508;-74
2022/03/28 05:16:19;;;;;;;22.03;12.13;;;;;;;3.86;100.00;96952.16;5106133;28;20481;-74
2022/03/28 05:18:45;;;;;;;24.73;13.17;;;;;;;3.92;100.00;96955.22;5111800;28;20055;-75
2022/03/28 05:21:10;;;;;;;20.27;12.67;;;;;;;3.98;100.00;96957.38;5102753;28;20034;-73
2022/03/28 05:23:36;;;;;;;26.33;15.77;;;;;;;4.00;100.00;96954.69;5108161;28;20032;-75
2022/03/28 05:26:04;;;;;;;29.30;17.43;;;;;;;3.82;100.00;96955.88;5104412;28;20049;-75
2022/03/28 05:28:30;;;;;;;23.17;13.23;;;;;;;3.89;100.00;96950.19;5111096;28;20039;-75
2022/03/28 05:30:58;;;;;;;27.77;14.53;;;;;;;3.99;100.00;96953.88;5094096;28;20464;-75
2022/03/28 05:33:24;;;;;;;28.07;14.23;;;;;;;3.95;100.00;96957.56;5112497;28;20437;-75
2022/03/28 05:35:51;;;;;;;23.47;12.43;;;;;;;4.08;100.00;96957.63;5109380;28;20500;-75
2022/03/28 05:38:18;;;;;;;20.13;12.13;;;;;;;4.24;100.00;96947.84;5108232;28;20445;-75
2022/03/28 05:40:44;;;;;;;20.87;12.40;;;;;;;4.50;100.00;96950.47;5114370;28;20447;-75
2022/03/28 05:43:10;;;;;;;21.23;11.77;;;;;;;4.58;100.00;96950.78;5113707;27;20903;-75
2022/03/28 05:45:36;;;;;;;19.40;11.60;;;;;;;4.88;100.00;96952.22;5105903;28;20039;-74
2022/03/28 05:48:02;;;;;;;22.13;11.77;;;;;;;5.09;100.00;96948.09;5111591;28;20141;-75
2022/03/28 05:50:28;;;;;;;20.80;11.87;;;;;;;5.40;100.00;96944.19;5107016;28;20032;-75
2022/03/28 05:52:54;;;;;;;22.03;11.73;;;;;;;5.46;100.00;96947.28;5114202;27;20460;-74
2022/03/28 05:55:21;;;;;;;20.03;11.10;;;;;;;5.78;99.15;96947.56;5111690;27;20032;-75
2022/03/28 05:57:47;;;;;;;22.67;12.80;;;;;;;6.12;95.54;96949.38;5104829;27;20450;-75
2022/03/28 06:00:14;;;;;;;22.30;11.10;;;;;;;6.21;93.94;96942.66;5107489;28;20470;-75
2022/03/28 06:02:42;;;;;;;18.97;11.30;;;;;;;6.21;93.44;96954.88;5111151;28;20115;-75
2022/03/28 06:05:08;;;;;;;19.67;11.00;;;;;;;6.01;94.59;96951.97;5104954;28;20031;-75
2022/03/28 06:07:34;;;;;;;20.90;11.80;;;;;;;6.16;94.32;96952.59;5111067;28;20089;-75
2022/03/28 06:10:00;;;;;;;20.67;11.73;;;;;;;6.37;93.24;96950.16;5110672;28;20031;-75
2022/03/28 06:12:25;;;;;;;17.77;11.27;;;;;;;6.94;90.91;96945.81;5101701;28;20027;-75
2022/03/28 06:14:51;;;;;;;23.80;12.07;;;;;;;7.14;88.13;96946.88;5107683;27;20039;-75
2022/03/28 06:17:24;;;;;;;18.37;11.27;;;;;;;7.53;86.32;96946.34;5110447;28;20028;-75
2022/03/28 06:19:51;;;;;;;17.33;12.15;;;;;;;7.72;83.87;96940.47;5114028;28;20019;-75
2022/03/28 06:22:16;;;;;;;17.17;10.93;;;;;;;8.37;79.99;96941.22;5100648;28;20028;-75
2022/03/28 06:24:43;;;;;;;19.97;12.13;;;;;;;8.36;81.61;96950.06;5115487;28;20467;-75
2022/03/28 06:27:09;;;;;;;21.87;10.70;;;;;;;8.96;77.50;96939.78;5114237;28;20027;-75
2022/03/28 06:29:34;;;;;;;22.53;12.53;;;;;;;9.21;74.20;96947.19;5115791;28;20412;-75
2022/03/28 06:32:00;;;;;;;18.17;11.63;;;;;;;9.57;73.90;96947.56;5103912;28;20084;-74
2022/03/28 06:34:26;;;;;;;24.83;13.30;;;;;;;9.37;73.86;96940.63;5105410;28;20495;-75
2022/03/28 06:36:51;;;;;;;22.07;12.60;;;;;;;10.03;70.90;96938.22;5112146;28;20480;-75
2022/03/28 06:39:17;;;;;;;19.67;12.67;;;;;;;9.84;72.06;96938.19;5111644;28;20035;-75
2022/03/28 06:41:43;;;;;;;18.07;11.93;;;;;;;9.83;74.33;96936.56;5106178;28;20036;-75
2022/03/28 06:44:11;;;;;;;19.27;12.60;;;;;;;9.78;74.74;96929.06;5100389;28;20027;-75
2022/03/28 06:46:45;;;;;;;18.57;11.53;;;;;;;9.84;74.30;96935.56;5109913;28;20062;-75
2022/03/28 06:49:11;;;;;;;23.93;12.60;;;;;;;10.09;71.12;96934.19;5112529;28;20469;-75
2022/03/28 06:51:37;;;;;;;20.73;13.50;;;;;;;9.42;74.67;96925.28;5108737;28;20095;-75
2022/03/28 06:54:04;;;;;;;17.07;11.50;;;;;;;10.20;71.51;96927.97;5111119;28;20066;-75
2022/03/28 06:56:30;;;;;;;22.43;12.30;;;;;;;9.94;69.89;96931.16;5112513;28;20027;-75
2022/03/28 06:58:56;;;;;;;18.37;10.93;;;;;;;10.70;67.66;96923.34;5092839;28;20028;-75
2022/03/28 07:01:22;;;;;;;17.83;10.67;;;;;;;11.41;63.13;96916.66;5108565;27;20073;-75
2022/03/28 07:03:48;;;;;;;19.13;11.80;;;;;;;11.50;62.74;96919.25;5111813;28;20781;-75
2022/03/28 07:06:14;;;;;;;23.43;11.80;;;;;;;11.48;61.20;96915.91;5107135;28;20020;-75
2022/03/28 07:08:40;;;;;;;17.53;11.60;;;;;;;12.35;58.49;96910.97;5105167;28;20047;-75
2022/03/28 07:11:06;;;;;;;19.83;13.27;;;;;;;12.17;58.14;96911.84;5104125;28;20040;-75
2022/03/28 07:13:32;;;;;;;18.60;12.17;;;;;;;12.86;54.72;96906.69;5104358;28;20039;-75
2022/03/28 07:15:58;;;;;;;21.07;13.10;;;;;;;12.65;55.90;96910.53;5108186;28;20028;-75
2022/03/28 07:18:24;;;;;;;23.50;13.13;;;;;;;12.63;56.80;96907.19;5081270;28;20032;-74
2022/03/28 07:20:52;;;;;;;19.23;12.53;;;;;;;13.42;54.47;96906.13;5115009;27;20043;-75
2022/03/28 07:23:18;;;;;;;19.30;12.70;;;;;;;14.17;50.37;96902.59;5114383;28;20111;-75
2022/03/28 07:25:46;;;;;;;21.10;14.03;;;;;;;15.11;48.21;96885.25;5105721;28;20047;-75
2022/03/28 07:28:13;;;;;;;21.63;13.03;;;;;;;14.77;49.60;96894.31;5111831;28;20028;-76
2022/03/28 07:30:40;;;;;;;21.33;12.70;;;;;;;14.32;50.82;96900.16;5118723;27;20127;-75
2022/03/28 07:33:07;;;;;;;26.37;13.63;;;;;;;15.41;48.77;96880.16;5117559;27;20148;-76
2022/03/28 07:35:37;;;;;;;23.03;13.57;;;;;;;15.77;45.06;96883.97;5110415;28;20518;-76
2022/03/28 07:38:07;;;;;;;22.73;12.30;;;;;;;16.45;43.49;96882.25;5115577;28;20532;-75
2022/03/28 07:40:34;;;;;;;25.30;14.03;;;;;;;16.53;46.87;96869.91;5112527;28;20055;-75
2022/03/28 07:43:00;;;;;;;20.13;12.07;;;;;;;16.33;47.33;96874.91;5103011;28;20015;-75
2022/03/28 07:45:26;;;;;;;20.97;12.13;;;;;;;16.44;47.07;96871.84;5110064;28;20032;-75
2022/03/28 07:47:52;;;;;;;19.90;13.93;;;;;;;17.43;44.68;96864.41;5111422;28;20651;-75
2022/03/28 07:50:17;;;;;;;45.53;35.20;;;;;;;17.90;42.78;96866.59;5101658;28;20027;-75
2022/03/28 07:52:44;;;;;;;23.33;13.60;;;;;;;16.92;41.48;96864.38;5109431;28;20146;-76
2022/03/28 07:55:12;;;;;;;21.00;13.45;;;;;;;17.22;41.78;96867.84;5109752;28;20073;-74
2022/03/28 07:57:37;;;;;;;19.83;13.83;;;;;;;17.72;39.44;96862.69;5100509;28;20021;-75
2022/03/28 08:00:10;;;;;;;19.33;12.48;;;;;;;17.34;40.12;96857.56;5108676;28;20392;-75
2022/03/28 08:02:39;;;;;;;19.05;13.00;;;;;;;17.90;39.65;96863.09;5110694;28;20043;-75
2022/03/28 08:05:07;;;;;;;20.98;12.85;;;;;;;18.41;37.37;96847.00;5109380;28;20032;-75
2022/03/28 08:07:33;;;;;;;19.98;12.55;;;;;;;18.52;41.83;96853.63;5108173;28;20120;-75
2022/03/28 08:09:59;;;;;;;22.55;17.42;;;;;;;18.20;43.05;96844.34;5115309;28;20034;-76
2022/03/28 08:12:25;;;;;;;32.70;26.42;;;;;;;18.76;42.47;96845.19;5105075;28;20527;-75
2022/03/28 08:14:51;;;;;;;24.65;18.35;;;;;;;18.05;42.39;96853.22;5112949;28;20085;-76
2022/03/28 08:17:20;;;;;;;24.42;16.23;;;;;;;18.12;42.55;96843.47;5111279;28;20065;-75
2022/03/28 08:19:49;;;;;;;20.58;14.38;;;;;;;17.97;42.04;96848.03;5110092;28;20032;-76
2022/03/28 08:22:16;;;;;;;24.05;13.90;;;;;;;18.93;39.92;96837.69;5111819;28;20019;-76
2022/03/28 08:24:42;;;;;;;16.85;11.95;;;;;;;19.45;40.07;96830.97;5110418;28;20038;-75
2022/03/28 08:27:08;;;;;;;20.75;13.25;;;;;;;19.86;39.66;96827.38;5111784;28;20024;-75
2022/03/28 08:29:35;;;;;;;21.65;13.65;;;;;;;19.35;39.90;96830.53;5112473;28;20106;-75
2022/03/28 08:32:02;;;;;;;17.20;12.73;;;;;;;19.90;38.58;96825.94;5107124;28;20023;-75
2022/03/28 08:34:29;;;;;;;22.38;13.95;;;;;;;19.48;39.41;96824.38;5113656;28;20476;-75
2022/03/28 08:36:55;;;;;;;19.80;13.05;;;;;;;20.14;35.95;96823.72;5109234;28;20188;-75
2022/03/28 08:39:21;;;;;;;22.85;13.63;;;;;;;20.66;34.77;96824.75;5111052;28;20044;-74
2022/03/28 08:41:48;;;;;;;23.50;14.77;;;;;;;19.83;36.26;96825.13;5114719;28;20087;-74
2022/03/28 08:44:15;;;;;;;21.30;15.20;;;;;;;20.49;34.68;96819.81;5111305;28;20055;-75
2022/03/28 08:46:44;;;;;;;18.88;12.40;;;;;;;19.99;36.21;96822.06;5111281;28;20130;-75
2022/03/28 08:49:10;;;;;;;20.67;13.35;;;;;;;20.11;34.78;96818.78;5091447;28;20039;-75
2022/03/28 08:51:36;;;;;;;20.02;13.57;;;;;;;19.71;36.60;96824.06;5104769;28;20036;-75
2022/03/28 08:54:02;;;;;;;21.88;13.77;;;;;;;19.78;36.22;96825.75;5098487;28;20032;-75
2022/03/28 08:56:28;;;;;;;24.60;15.50;;;;;;;20.31;34.80;96814.25;5112951;28;20040;-75
2022/03/28 08:58:54;;;;;;;22.77;15.27;;;;;;;20.83;34.37;96809.09;5114746;28;20034;-75
2022/03/28 09:01:21;;;;;;;20.63;13.10;;;;;;;21.77;32.85;96816.50;5108577;27;20035;-76
2022/03/28 09:03:48;;;;;;;20.65;12.65;;;;;;;21.90;32.92;96818.28;5089877;28;20241;-76
2022/03/28 09:06:37;;;;;;;17.85;13.57;;;;;;;22.25;33.55;96810.63;5107022;27;20016;-75
2022/03/28 09:09:24;;;;;;;23.27;13.98;;;;;;;22.39;33.54;96810.50;5104359;28;20114;-75
2022/03/28 09:11:56;;;;;;;19.75;14.02;;;;;;;21.27;34.93;96805.63;5112806;28;20043;-76
2022/03/28 09:14:33;;;;;;;21.38;14.90;;;;;;;21.61;34.22;96804.44;5104118;28;20058;-75
2022/03/28 09:17:03;;;;;;;22.25;13.77;;;;;;;21.00;33.98;96809.44;5103913;28;20042;-76
2022/03/28 09:19:42;;;;;;;19.38;13.80;;;;;;;21.84;32.97;96803.06;5126620;27;20044;-75
2022/03/28 09:22:13;;;;;;;19.98;14.25;;;;;;;22.09;32.33;96811.13;5089656;28;20067;-75
2022/03/28 09:24:39;;;;;;;19.60;13.15;;;;;;;22.52;31.88;96805.03;5119178;27;20032;-75
2022/03/28 09:27:16;;;;;;;23.55;14.00;;;;;;;22.52;30.55;96794.31;5115513;27;20042;-75
2022/03/28 09:30:16;;;;;;;19.50;14.35;;;;;;;22.86;29.74;96792.09;5096012;28;20035;-75
2022/03/28 09:32:43;;;;;;;20.83;14.05;;;;;;;22.42;29.36;96794.00;5094160;28;20048;-76
2022/03/28 09:35:19;;;;;;;22.17;15.07;;;;;;;22.39;27.26;96797.09;5112252;27;20035;-75
2022/03/28 09:37:48;;;;;;;22.85;14.85;;;;;;;22.53;28.54;96787.88;5110175;28;20070;-76
2022/03/28 09:40:40;;;;;;;25.30;16.00;;;;;;;22.25;29.66;96791.88;5113904;27;20028;-76
2022/03/28 09:43:15;;;;;;;18.27;13.88;;;;;;;22.36;28.94;96783.09;5102207;28;20039;-75
2022/03/28 09:45:45;;;;;;;22.85;15.07;;;;;;;23.13;28.40;96779.22;5105838;28;20039;-76
2022/03/28 09:48:11;;;;;;;28.98;16.92;;;;;;;22.79;27.31;96776.09;5096901;28;20036;-76
2022/03/28 09:50:56;;;;;;;27.35;14.95;;;;;;;22.83;27.18;96764.66;5108909;28;20497;-76
2022/03/28 09:53:31;;;;;;;22.65;14.40;;;;;;;22.70;25.77;96769.38;5092408;28;20040;-75
2022/03/28 09:56:07;;;;;;;21.02;14.13;;;;;;;22.70;24.71;96764.84;5108500;28;20067;-75
2022/03/28 09:58:48;;;;;;;24.17;15.32;;;;;;;23.07;25.55;96762.16;5103035;28;20036;-76
2022/03/28 10:01:21;;;;;;;22.65;15.13;;;;;;;22.74;25.29;96758.00;5116958;28;20028;-75
2022/03/28 10:04:08;;;;;;;19.73;14.45;;;;;;;22.93;25.41;96766.06;5113118;28;20039;-76
2022/03/28 10:06:39;;;;;;;20.15;14.55;;;;;;;23.05;24.61;96751.66;5110382;28;20036;-76
2022/03/28 10:09:06;;;;;;;22.00;15.45;;;;;;;23.45;24.03;96753.00;5108395;28;20034;-76
2022/03/28 10:11:32;;;;;;;19.60;14.88;;;;;;;23.21;25.08;96742.19;5115054;28;20042;-76
2022/03/28 10:13:58;;;;;;;22.48;15.07;;;;;;;23.81;24.40;96744.03;5112737;28;20019;-76
2022/03/28 10:16:24;;;;;;;22.50;14.68;;;;;;;23.81;24.09;96741.34;5096699;28;20492;-75
2022/03/28 10:18:51;;;;;;;20.10;14.05;;;;;;;23.90;24.52;96731.06;5114319;28;20042;-75
2022/03/28 10:21:32;;;;;;;22.45;14.88;;;;;;;23.84;24.30;96721.25;5106956;28;20020;-75
2022/03/28 10:24:20;;;;;;;20.92;14.65;;;;;;;23.50;23.91;96731.66;5097923;28;20060;-75
2022/03/28 10:26:51;;;;;;;22.48;15.48;;;;;;;24.54;23.73;96713.22;5106525;28;20102;-75
2022/03/28 10:29:35;;;;;;;21.95;15.52;;;;;;;24.28;22.91;96714.53;5113754;28;20042;-75
2022/03/28 10:32:15;;;;;;;23.75;16.13;;;;;;;23.40;22.74;96712.59;5083689;28;20112;-76
2022/03/28 10:34:49;;;;;;;23.63;16.80;;;;;;;23.63;23.58;96711.84;5115534;27;20042;-75
2022/03/28 10:37:40;;;;;;;22.65;15.15;;;;;;;24.00;23.42;96699.91;5095643;28;20035;-76
2022/03/28 10:40:17;;;;;;;20.02;14.82;;;;;;;22.79;23.27;96709.84;5088568;28;20032;-77
2022/03/28 10:43:01;;;;;;;23.52;15.68;;;;;;;23.39;23.42;96705.59;5105798;28;20100;-77
2022/03/28 10:45:34;;;;;;;21.23;15.50;;;;;;;23.34;23.71;96705.47;5113178;28;20083;-76
2022/03/28 10:48:00;;;;;;;22.17;14.88;;;;;;;22.68;23.71;96702.56;5102945;28;20468;-76
2022/03/28 10:50:30;;;;;;;23.00;16.60;;;;;;;22.74;23.93;96698.19;5104378;28;20023;-77
2022/03/28 10:53:13;;;;;;;22.77;15.48;;;;;;;23.18;24.03;96694.34;5110169;28;20080;-77
2022/03/28 10:55:43;;;;;;;21.83;16.10;;;;;;;23.47;23.53;96689.16;5089709;28;20032;-77
2022/03/28 10:58:30;;;;;;;18.33;14.65;;;;;;;23.54;23.18;96681.84;5112480;27;20416;-77
2022/03/28 11:01:09;;;;;;;21.10;15.48;;;;;;;23.69;23.40;96681.44;5087196;28;20031;-76
2022/03/28 11:03:53;;;;;;;19.55;14.02;;;;;;;23.23;23.82;96673.00;5124558;27;20035;-78
2022/03/28 11:06:38;;;;;;;22.95;15.65;;;;;;;23.61;23.82;96673.66;5101216;28;20112;-77
2022/03/28 11:09:04;;;;;;;22.00;14.30;;;;;;;23.56;22.75;96679.72;5108390;28;20031;-77
2022/03/28 11:11:32;;;;;;;22.55;13.07;;;;;;;23.67;23.30;96668.19;5111826;27;20023;-77
2022/03/28 11:14:04;;;;;;;21.73;15.55;;;;;;;23.46;23.06;96660.69;5099033;28;20057;-77
2022/03/28 11:16:49;;;;;;;19.02;13.50;;;;;;;23.83;23.64;96650.59;5112173;27;20031;-77
2022/03/28 11:19:25;;;;;;;21.25;15.00;;;;;;;24.39;21.69;96648.38;5110270;27;20027;-78
2022/03/28 11:22:54;;;;;;;18.55;14.32;;;;;;;23.60;22.44;96647.88;5091185;28;20028;-77
2022/03/28 11:25:44;;;;;;;22.85;14.00;;;;;;;23.98;22.49;96642.09;5065077;28;20076;-77
2022/03/28 11:28:13;;;;;;;18.95;13.82;;;;;;;24.16;21.87;96641.16;5110247;28;20028;-78